sensor_id;sensor_type;location;lat;lon;timestamp;temperature;humidity
27226;DHT22;14732;51.074;3.788;2023-03-21T00:02:16;12.70;99.90
27226;DHT22;14732;51.074;3.788;2023-03-21T00:04:42;12.70;99.90
27226;DHT22;14732;51.074;3.788;2023-03-21T00:07:08;12.60;99.90
27226;DHT22;14732;51.074;3.788;2023-03-21T00:09:34;12.70;99.90
27226;DHT22;14732;51.074;3.788;2023-03-21T00:11:59;12.60;99.90
27226;DHT22;14732;51.074;3.788;2023-03-21T00:14:27;12.60;99.90
27226;DHT22;14732;51.074;3.788;2023-03-21T00:16:55;12.60;99.90
27226;DHT22;14732;51.074;3.788;2023-03-21T00:19:21;12.60;99.90
27226;DHT22;14732;51.074;3.788;2023-03-21T00:21:51;12.60;99.90
27226;DHT22;14732;51.074;3.788;2023-03-21T00:24:17;12.60;99.90
27226;DHT22;14732;51.074;3.788;2023-03-21T00:26:43;12.60;99.90
27226;DHT22;14732;51.074;3.788;2023-03-21T00:29:09;12.60;99.90
27226;DHT22;14732;51.074;3.788;2023-03-21T00:31:34;12.50;99.90
27226;DHT22;14732;51.074;3.788;2023-03-21T00:34:00;12.60;99.90
27226;DHT22;14732;51.074;3.788;2023-03-21T00:36:26;12.60;99.90
27226;DHT22;14732;51.074;3.788;2023-03-21T00:38:52;12.60;99.90
27226;DHT22;14732;51.074;3.788;2023-03-21T00:41:18;12.50;99.90
27226;DHT22;14732;51.074;3.788;2023-03-21T00:43:44;12.50;99.90
27226;DHT22;14732;51.074;3.788;2023-03-21T00:46:10;12.60;99.90
27226;DHT22;14732;51.074;3.788;2023-03-21T00:48:36;12.50;99.90
27226;DHT22;14732;51.074;3.788;2023-03-21T00:51:09;12.50;99.90
27226;DHT22;14732;51.074;3.788;2023-03-21T00:53:36;12.50;99.90
27226;DHT22;14732;51.074;3.788;2023-03-21T00:56:02;12.40;99.90
27226;DHT22;14732;51.074;3.788;2023-03-21T00:58:28;12.40;99.90
27226;DHT22;14732;51.074;3.788;2023-03-21T01:00:54;12.40;99.90
27226;DHT22;14732;51.074;3.788;2023-03-21T01:03:19;12.50;99.90
27226;DHT22;14732;51.074;3.788;2023-03-21T01:05:47;12.50;99.90
27226;DHT22;14732;51.074;3.788;2023-03-21T01:08:30;12.50;99.90
27226;DHT22;14732;51.074;3.788;2023-03-21T01:10:56;12.50;99.90
27226;DHT22;14732;51.074;3.788;2023-03-21T01:13:25;12.60;99.90
27226;DHT22;14732;51.074;3.788;2023-03-21T01:15:53;12.60;99.90
27226;DHT22;14732;51.074;3.788;2023-03-21T01:18:22;12.70;99.90
27226;DHT22;14732;51.074;3.788;2023-03-21T01:20:50;12.50;99.90
27226;DHT22;14732;51.074;3.788;2023-03-21T01:23:16;12.50;99.90
27226;DHT22;14732;51.074;3.788;2023-03-21T01:25:42;12.50;99.90
27226;DHT22;14732;51.074;3.788;2023-03-21T01:28:08;12.50;99.90
27226;DHT22;14732;51.074;3.788;2023-03-21T01:30:35;12.50;99.90
27226;DHT22;14732;51.074;3.788;2023-03-21T01:33:01;12.50;99.90
27226;DHT22;14732;51.074;3.788;2023-03-21T01:35:26;12.40;99.90
27226;DHT22;14732;51.074;3.788;2023-03-21T01:37:52;12.40;99.90
27226;DHT22;14732;51.074;3.788;2023-03-21T01:40:22;12.40;99.90
27226;DHT22;14732;51.074;3.788;2023-03-21T01:42:48;12.30;99.90
27226;DHT22;14732;51.074;3.788;2023-03-21T01:46:09;12.20;99.90
27226;DHT22;14732;51.074;3.788;2023-03-21T01:48:26;12.30;99.90
27226;DHT22;14732;51.074;3.788;2023-03-21T01:50:52;12.30;99.90
27226;DHT22;14732;51.074;3.788;2023-03-21T01:53:24;12.30;99.90
27226;DHT22;14732;51.074;3.788;2023-03-21T01:55:58;12.30;99.90
27226;DHT22;14732;51.074;3.788;2023-03-21T01:58:25;12.30;99.90
27226;DHT22;14732;51.074;3.788;2023-03-21T02:00:52;12.20;99.90
27226;DHT22;14732;51.074;3.788;2023-03-21T02:03:20;12.20;99.90
27226;DHT22;14732;51.074;3.788;2023-03-21T02:06:28;12.30;99.90
27226;DHT22;14732;51.074;3.788;2023-03-21T02:09:02;12.30;99.90
27226;DHT22;14732;51.074;3.788;2023-03-21T02:11:29;12.30;99.90
27226;DHT22;14732;51.074;3.788;2023-03-21T02:13:56;12.10;99.90
27226;DHT22;14732;51.074;3.788;2023-03-21T02:25:51;12.10;99.90
27226;DHT22;14732;51.074;3.788;2023-03-21T02:36:25;12.00;99.90
27226;DHT22;14732;51.074;3.788;2023-03-21T02:41:37;12.00;99.90
27226;DHT22;14732;51.074;3.788;2023-03-21T02:44:22;12.10;99.90
27226;DHT22;14732;51.074;3.788;2023-03-21T02:46:50;12.20;99.90
27226;DHT22;14732;51.074;3.788;2023-03-21T02:49:22;12.30;99.90
27226;DHT22;14732;51.074;3.788;2023-03-21T02:51:49;12.30;99.90
27226;DHT22;14732;51.074;3.788;2023-03-21T02:54:20;12.30;99.90
27226;DHT22;14732;51.074;3.788;2023-03-21T02:56:49;12.10;99.90
27226;DHT22;14732;51.074;3.788;2023-03-21T02:59:17;12.20;99.90
27226;DHT22;14732;51.074;3.788;2023-03-21T03:01:43;12.10;99.90
27226;DHT22;14732;51.074;3.788;2023-03-21T03:04:20;12.10;99.90
27226;DHT22;14732;51.074;3.788;2023-03-21T03:15:56;12.30;99.90
27226;DHT22;14732;51.074;3.788;2023-03-21T03:28:55;12.40;99.90
27226;DHT22;14732;51.074;3.788;2023-03-21T03:31:33;12.40;99.90
27226;DHT22;14732;51.074;3.788;2023-03-21T03:34:05;12.30;99.90
27226;DHT22;14732;51.074;3.788;2023-03-21T03:36:35;12.30;99.90
27226;DHT22;14732;51.074;3.788;2023-03-21T03:39:05;12.40;99.90
27226;DHT22;14732;51.074;3.788;2023-03-21T03:41:43;12.40;99.90
27226;DHT22;14732;51.074;3.788;2023-03-21T03:44:10;12.40;99.90
27226;DHT22;14732;51.074;3.788;2023-03-21T03:46:41;12.30;99.90
27226;DHT22;14732;51.074;3.788;2023-03-21T03:49:15;12.50;99.90
27226;DHT22;14732;51.074;3.788;2023-03-21T03:54:27;12.50;99.90
27226;DHT22;14732;51.074;3.788;2023-03-21T03:56:57;12.40;99.90
27226;DHT22;14732;51.074;3.788;2023-03-21T03:59:23;12.40;99.90
27226;DHT22;14732;51.074;3.788;2023-03-21T04:01:50;12.40;99.90
27226;DHT22;14732;51.074;3.788;2023-03-21T04:04:15;12.50;99.90
27226;DHT22;14732;51.074;3.788;2023-03-21T04:06:44;12.50;99.90
27226;DHT22;14732;51.074;3.788;2023-03-21T04:09:16;12.40;99.90
27226;DHT22;14732;51.074;3.788;2023-03-21T04:11:43;12.40;99.90
27226;DHT22;14732;51.074;3.788;2023-03-21T04:14:08;12.50;99.90
27226;DHT22;14732;51.074;3.788;2023-03-21T04:16:34;12.60;99.90
27226;DHT22;14732;51.074;3.788;2023-03-21T04:19:00;12.40;99.90
27226;DHT22;14732;51.074;3.788;2023-03-21T04:21:27;12.40;99.90
27226;DHT22;14732;51.074;3.788;2023-03-21T04:23:53;12.30;99.90
27226;DHT22;14732;51.074;3.788;2023-03-21T04:26:22;12.20;99.90
27226;DHT22;14732;51.074;3.788;2023-03-21T04:28:50;12.40;99.90
27226;DHT22;14732;51.074;3.788;2023-03-21T04:31:16;12.30;99.90
27226;DHT22;14732;51.074;3.788;2023-03-21T04:33:43;12.30;99.90
27226;DHT22;14732;51.074;3.788;2023-03-21T04:36:09;12.30;99.90
27226;DHT22;14732;51.074;3.788;2023-03-21T04:38:43;12.30;99.90
27226;DHT22;14732;51.074;3.788;2023-03-21T04:41:12;12.30;99.90
27226;DHT22;14732;51.074;3.788;2023-03-21T04:43:38;12.20;99.90
27226;DHT22;14732;51.074;3.788;2023-03-21T04:46:04;12.20;99.90
27226;DHT22;14732;51.074;3.788;2023-03-21T04:48:30;12.20;99.90
27226;DHT22;14732;51.074;3.788;2023-03-21T04:50:56;12.10;99.90
27226;DHT22;14732;51.074;3.788;2023-03-21T04:53:21;12.00;99.90
27226;DHT22;14732;51.074;3.788;2023-03-21T04:55:47;11.90;99.90
27226;DHT22;14732;51.074;3.788;2023-03-21T04:58:13;11.90;99.90
27226;DHT22;14732;51.074;3.788;2023-03-21T05:00:39;12.00;99.90
27226;DHT22;14732;51.074;3.788;2023-03-21T05:03:05;12.10;99.90
27226;DHT22;14732;51.074;3.788;2023-03-21T05:05:37;12.10;99.90
27226;DHT22;14732;51.074;3.788;2023-03-21T05:08:04;12.20;99.90
27226;DHT22;14732;51.074;3.788;2023-03-21T05:10:30;12.10;99.90
27226;DHT22;14732;51.074;3.788;2023-03-21T05:12:55;12.20;99.90
27226;DHT22;14732;51.074;3.788;2023-03-21T05:15:21;12.10;99.90
27226;DHT22;14732;51.074;3.788;2023-03-21T05:17:47;12.10;99.90
27226;DHT22;14732;51.074;3.788;2023-03-21T05:20:13;12.20;99.90
27226;DHT22;14732;51.074;3.788;2023-03-21T05:22:40;12.20;99.90
27226;DHT22;14732;51.074;3.788;2023-03-21T05:25:08;12.20;99.90
27226;DHT22;14732;51.074;3.788;2023-03-21T05:27:34;12.10;99.90
27226;DHT22;14732;51.074;3.788;2023-03-21T05:30:13;12.20;99.90
27226;DHT22;14732;51.074;3.788;2023-03-21T05:32:39;12.30;99.90
27226;DHT22;14732;51.074;3.788;2023-03-21T05:35:05;12.10;99.90
27226;DHT22;14732;51.074;3.788;2023-03-21T05:37:31;12.10;99.90
27226;DHT22;14732;51.074;3.788;2023-03-21T05:39:56;12.00;99.90
27226;DHT22;14732;51.074;3.788;2023-03-21T05:42:22;12.10;99.90
27226;DHT22;14732;51.074;3.788;2023-03-21T05:44:48;12.00;99.90
27226;DHT22;14732;51.074;3.788;2023-03-21T05:47:15;12.10;99.90
27226;DHT22;14732;51.074;3.788;2023-03-21T05:49:41;12.00;99.90
27226;DHT22;14732;51.074;3.788;2023-03-21T05:52:07;11.90;99.90
27226;DHT22;14732;51.074;3.788;2023-03-21T05:54:33;12.00;99.90
27226;DHT22;14732;51.074;3.788;2023-03-21T05:56:59;12.00;99.90
27226;DHT22;14732;51.074;3.788;2023-03-21T05:59:25;12.00;99.90
27226;DHT22;14732;51.074;3.788;2023-03-21T06:01:51;12.00;99.90
27226;DHT22;14732;51.074;3.788;2023-03-21T06:04:16;11.90;99.90
27226;DHT22;14732;51.074;3.788;2023-03-21T06:06:42;12.00;99.90
27226;DHT22;14732;51.074;3.788;2023-03-21T06:09:08;11.90;99.90
27226;DHT22;14732;51.074;3.788;2023-03-21T06:11:35;11.90;99.90
27226;DHT22;14732;51.074;3.788;2023-03-21T06:14:02;12.00;99.90
27226;DHT22;14732;51.074;3.788;2023-03-21T06:16:28;12.00;99.90
27226;DHT22;14732;51.074;3.788;2023-03-21T06:18:54;12.10;99.90
27226;DHT22;14732;51.074;3.788;2023-03-21T06:21:20;12.10;99.90
27226;DHT22;14732;51.074;3.788;2023-03-21T06:23:46;12.10;99.90
27226;DHT22;14732;51.074;3.788;2023-03-21T06:26:12;12.10;99.90
27226;DHT22;14732;51.074;3.788;2023-03-21T06:28:38;12.00;99.90
27226;DHT22;14732;51.074;3.788;2023-03-21T06:31:04;11.90;99.90
27226;DHT22;14732;51.074;3.788;2023-03-21T06:33:31;12.10;99.90
27226;DHT22;14732;51.074;3.788;2023-03-21T06:35:57;12.20;99.90
27226;DHT22;14732;51.074;3.788;2023-03-21T06:38:24;12.30;99.90
27226;DHT22;14732;51.074;3.788;2023-03-21T06:40:50;12.40;99.90
27226;DHT22;14732;51.074;3.788;2023-03-21T06:43:16;12.20;99.90
27226;DHT22;14732;51.074;3.788;2023-03-21T06:45:43;12.10;99.90
27226;DHT22;14732;51.074;3.788;2023-03-21T06:48:08;12.20;99.90
27226;DHT22;14732;51.074;3.788;2023-03-21T06:50:34;12.10;99.90
27226;DHT22;14732;51.074;3.788;2023-03-21T06:53:00;12.20;99.90
27226;DHT22;14732;51.074;3.788;2023-03-21T06:55:26;12.20;99.90
27226;DHT22;14732;51.074;3.788;2023-03-21T06:57:56;12.20;99.90
27226;DHT22;14732;51.074;3.788;2023-03-21T07:00:23;12.30;99.90
27226;DHT22;14732;51.074;3.788;2023-03-21T07:02:49;12.30;99.90
27226;DHT22;14732;51.074;3.788;2023-03-21T07:05:16;12.30;99.90
27226;DHT22;14732;51.074;3.788;2023-03-21T07:07:42;12.30;99.90
27226;DHT22;14732;51.074;3.788;2023-03-21T07:10:08;12.30;99.90
27226;DHT22;14732;51.074;3.788;2023-03-21T07:12:34;12.30;99.90
27226;DHT22;14732;51.074;3.788;2023-03-21T07:15:05;12.40;99.90
27226;DHT22;14732;51.074;3.788;2023-03-21T07:17:31;12.40;99.90
27226;DHT22;14732;51.074;3.788;2023-03-21T07:19:57;12.40;99.90
27226;DHT22;14732;51.074;3.788;2023-03-21T07:22:23;12.60;99.90
27226;DHT22;14732;51.074;3.788;2023-03-21T07:24:49;12.60;99.90
27226;DHT22;14732;51.074;3.788;2023-03-21T07:27:17;12.60;99.90
27226;DHT22;14732;51.074;3.788;2023-03-21T07:29:43;12.60;99.90
27226;DHT22;14732;51.074;3.788;2023-03-21T07:32:11;12.50;99.90
27226;DHT22;14732;51.074;3.788;2023-03-21T07:34:37;12.50;99.90
27226;DHT22;14732;51.074;3.788;2023-03-21T07:37:03;12.60;99.90
27226;DHT22;14732;51.074;3.788;2023-03-21T07:39:31;12.60;99.90
27226;DHT22;14732;51.074;3.788;2023-03-21T07:41:58;12.60;99.90
27226;DHT22;14732;51.074;3.788;2023-03-21T07:44:24;12.60;99.90
27226;DHT22;14732;51.074;3.788;2023-03-21T07:46:50;12.80;99.90
27226;DHT22;14732;51.074;3.788;2023-03-21T07:49:15;12.90;99.90
27226;DHT22;14732;51.074;3.788;2023-03-21T07:51:41;12.80;99.90
27226;DHT22;14732;51.074;3.788;2023-03-21T07:54:07;13.00;99.90
27226;DHT22;14732;51.074;3.788;2023-03-21T07:56:33;13.10;99.90
27226;DHT22;14732;51.074;3.788;2023-03-21T07:58:59;13.30;99.90
27226;DHT22;14732;51.074;3.788;2023-03-21T08:01:25;13.40;99.90
27226;DHT22;14732;51.074;3.788;2023-03-21T08:03:51;13.40;99.90
27226;DHT22;14732;51.074;3.788;2023-03-21T08:06:21;13.30;99.90
27226;DHT22;14732;51.074;3.788;2023-03-21T08:08:47;13.30;99.90
27226;DHT22;14732;51.074;3.788;2023-03-21T08:11:13;13.50;99.90
27226;DHT22;14732;51.074;3.788;2023-03-21T08:13:40;13.60;99.90
27226;DHT22;14732;51.074;3.788;2023-03-21T08:16:06;13.70;99.90
27226;DHT22;14732;51.074;3.788;2023-03-21T08:18:33;13.80;99.90
27226;DHT22;14732;51.074;3.788;2023-03-21T08:20:58;13.90;99.90
27226;DHT22;14732;51.074;3.788;2023-03-21T08:23:24;13.90;99.90
27226;DHT22;14732;51.074;3.788;2023-03-21T08:25:54;13.90;99.90
27226;DHT22;14732;51.074;3.788;2023-03-21T08:28:20;13.90;99.90
27226;DHT22;14732;51.074;3.788;2023-03-21T08:30:47;14.00;99.90
27226;DHT22;14732;51.074;3.788;2023-03-21T08:33:13;14.20;99.90
27226;DHT22;14732;51.074;3.788;2023-03-21T08:35:39;14.40;99.90
27226;DHT22;14732;51.074;3.788;2023-03-21T08:38:05;14.60;99.90
27226;DHT22;14732;51.074;3.788;2023-03-21T08:40:32;14.60;99.90
27226;DHT22;14732;51.074;3.788;2023-03-21T08:42:58;14.70;99.90
27226;DHT22;14732;51.074;3.788;2023-03-21T08:45:24;14.80;99.90
27226;DHT22;14732;51.074;3.788;2023-03-21T08:47:52;15.00;99.90
27226;DHT22;14732;51.074;3.788;2023-03-21T08:50:20;15.10;99.90
27226;DHT22;14732;51.074;3.788;2023-03-21T08:52:47;15.10;99.90
27226;DHT22;14732;51.074;3.788;2023-03-21T08:55:14;15.10;99.90
27226;DHT22;14732;51.074;3.788;2023-03-21T08:57:40;15.00;99.90
27226;DHT22;14732;51.074;3.788;2023-03-21T09:00:08;15.10;99.90
27226;DHT22;14732;51.074;3.788;2023-03-21T09:02:46;15.10;99.90
27226;DHT22;14732;51.074;3.788;2023-03-21T09:05:13;14.70;99.90
27226;DHT22;14732;51.074;3.788;2023-03-21T09:07:40;14.40;99.90
27226;DHT22;14732;51.074;3.788;2023-03-21T09:10:08;14.30;99.90
27226;DHT22;14732;51.074;3.788;2023-03-21T09:12:34;14.50;99.90
27226;DHT22;14732;51.074;3.788;2023-03-21T09:15:00;14.40;99.90
27226;DHT22;14732;51.074;3.788;2023-03-21T09:17:30;14.40;99.90
27226;DHT22;14732;51.074;3.788;2023-03-21T09:19:59;14.30;99.90
27226;DHT22;14732;51.074;3.788;2023-03-21T09:22:25;14.20;99.90
27226;DHT22;14732;51.074;3.788;2023-03-21T09:24:52;14.00;99.90
27226;DHT22;14732;51.074;3.788;2023-03-21T09:27:18;14.10;99.90
27226;DHT22;14732;51.074;3.788;2023-03-21T09:29:48;14.00;99.90
27226;DHT22;14732;51.074;3.788;2023-03-21T09:32:14;13.90;99.90
27226;DHT22;14732;51.074;3.788;2023-03-21T09:34:42;13.90;99.90
27226;DHT22;14732;51.074;3.788;2023-03-21T09:37:10;14.00;99.90
27226;DHT22;14732;51.074;3.788;2023-03-21T09:39:38;14.00;99.90
27226;DHT22;14732;51.074;3.788;2023-03-21T09:42:49;14.00;99.90
27226;DHT22;14732;51.074;3.788;2023-03-21T09:45:39;14.30;99.90
27226;DHT22;14732;51.074;3.788;2023-03-21T09:48:14;14.50;99.90
27226;DHT22;14732;51.074;3.788;2023-03-21T09:50:44;14.50;99.90
27226;DHT22;14732;51.074;3.788;2023-03-21T09:53:13;14.70;99.90
27226;DHT22;14732;51.074;3.788;2023-03-21T09:55:42;14.90;99.90
27226;DHT22;14732;51.074;3.788;2023-03-21T10:00:53;14.80;99.90
27226;DHT22;14732;51.074;3.788;2023-03-21T10:03:23;15.00;99.90
27226;DHT22;14732;51.074;3.788;2023-03-21T10:05:52;14.90;99.90
27226;DHT22;14732;51.074;3.788;2023-03-21T10:10:59;15.10;99.90
27226;DHT22;14732;51.074;3.788;2023-03-21T10:13:34;15.00;99.90
27226;DHT22;14732;51.074;3.788;2023-03-21T10:16:10;15.10;99.90
27226;DHT22;14732;51.074;3.788;2023-03-21T10:18:40;14.90;99.90
27226;DHT22;14732;51.074;3.788;2023-03-21T10:21:07;14.60;99.90
27226;DHT22;14732;51.074;3.788;2023-03-21T10:23:38;14.40;99.90
27226;DHT22;14732;51.074;3.788;2023-03-21T10:26:05;14.60;99.90
27226;DHT22;14732;51.074;3.788;2023-03-21T10:28:36;14.80;99.90
27226;DHT22;14732;51.074;3.788;2023-03-21T10:31:07;14.70;99.90
27226;DHT22;14732;51.074;3.788;2023-03-21T10:33:38;14.80;99.90
27226;DHT22;14732;51.074;3.788;2023-03-21T10:36:07;14.90;99.90
27226;DHT22;14732;51.074;3.788;2023-03-21T10:38:35;14.90;99.90
27226;DHT22;14732;51.074;3.788;2023-03-21T10:41:02;14.80;99.90
27226;DHT22;14732;51.074;3.788;2023-03-21T10:46:12;14.50;99.90
27226;DHT22;14732;51.074;3.788;2023-03-21T10:48:40;14.80;99.90
27226;DHT22;14732;51.074;3.788;2023-03-21T10:51:16;15.00;99.90
27226;DHT22;14732;51.074;3.788;2023-03-21T10:54:47;15.50;99.90
27226;DHT22;14732;51.074;3.788;2023-03-21T10:57:10;15.70;99.90
27226;DHT22;14732;51.074;3.788;2023-03-21T10:59:38;16.20;99.90
27226;DHT22;14732;51.074;3.788;2023-03-21T11:02:05;16.50;99.90
27226;DHT22;14732;51.074;3.788;2023-03-21T11:04:36;16.80;99.90
27226;DHT22;14732;51.074;3.788;2023-03-21T11:07:04;16.80;99.90
27226;DHT22;14732;51.074;3.788;2023-03-21T11:09:57;17.00;99.90
27226;DHT22;14732;51.074;3.788;2023-03-21T11:12:38;17.30;99.90
27226;DHT22;14732;51.074;3.788;2023-03-21T11:15:28;17.30;99.90
27226;DHT22;14732;51.074;3.788;2023-03-21T11:17:55;17.10;99.90
27226;DHT22;14732;51.074;3.788;2023-03-21T11:20:22;16.90;99.90
27226;DHT22;14732;51.074;3.788;2023-03-21T11:22:48;16.80;99.90
27226;DHT22;14732;51.074;3.788;2023-03-21T11:27:53;17.00;99.90
27226;DHT22;14732;51.074;3.788;2023-03-21T11:30:25;17.20;99.90
27226;DHT22;14732;51.074;3.788;2023-03-21T11:32:56;17.40;99.90
27226;DHT22;14732;51.074;3.788;2023-03-21T11:35:27;17.50;99.90
27226;DHT22;14732;51.074;3.788;2023-03-21T11:37:54;17.60;99.90
27226;DHT22;14732;51.074;3.788;2023-03-21T11:40:22;17.60;99.90
27226;DHT22;14732;51.074;3.788;2023-03-21T11:43:02;17.50;99.90
27226;DHT22;14732;51.074;3.788;2023-03-21T11:45:31;17.50;99.90
27226;DHT22;14732;51.074;3.788;2023-03-21T11:47:59;17.00;99.90
27226;DHT22;14732;51.074;3.788;2023-03-21T11:50:35;17.00;99.90
27226;DHT22;14732;51.074;3.788;2023-03-21T12:04:38;17.50;99.90
27226;DHT22;14732;51.074;3.788;2023-03-21T12:12:54;17.60;99.90
27226;DHT22;14732;51.074;3.788;2023-03-21T12:15:30;17.20;99.90
27226;DHT22;14732;51.074;3.788;2023-03-21T12:25:52;17.30;99.90
27226;DHT22;14732;51.074;3.788;2023-03-21T12:39:35;16.70;99.90
27226;DHT22;14732;51.074;3.788;2023-03-21T12:42:41;16.50;99.90
27226;DHT22;14732;51.074;3.788;2023-03-21T12:45:17;16.50;99.90
27226;DHT22;14732;51.074;3.788;2023-03-21T12:47:50;16.50;99.90
27226;DHT22;14732;51.074;3.788;2023-03-21T12:50:30;16.60;99.90
27226;DHT22;14732;51.074;3.788;2023-03-21T12:56:03;16.40;99.90
27226;DHT22;14732;51.074;3.788;2023-03-21T12:58:30;16.10;99.90
27226;DHT22;14732;51.074;3.788;2023-03-21T13:01:02;16.10;99.90
27226;DHT22;14732;51.074;3.788;2023-03-21T13:03:39;16.30;99.90
27226;DHT22;14732;51.074;3.788;2023-03-21T13:06:13;16.40;99.90
27226;DHT22;14732;51.074;3.788;2023-03-21T13:09:23;16.30;99.90
27226;DHT22;14732;51.074;3.788;2023-03-21T13:11:41;16.50;99.90
27226;DHT22;14732;51.074;3.788;2023-03-21T13:14:19;16.50;99.90
27226;DHT22;14732;51.074;3.788;2023-03-21T13:17:00;16.20;99.90
27226;DHT22;14732;51.074;3.788;2023-03-21T13:19:40;16.10;99.90
27226;DHT22;14732;51.074;3.788;2023-03-21T13:24:48;16.10;99.90
27226;DHT22;14732;51.074;3.788;2023-03-21T13:27:34;16.10;99.90
27226;DHT22;14732;51.074;3.788;2023-03-21T13:32:40;15.70;99.90
27226;DHT22;14732;51.074;3.788;2023-03-21T13:35:15;15.80;99.90
27226;DHT22;14732;51.074;3.788;2023-03-21T13:37:48;15.80;99.90
27226;DHT22;14732;51.074;3.788;2023-03-21T13:40:26;15.90;99.90
27226;DHT22;14732;51.074;3.788;2023-03-21T13:42:55;15.70;99.90
27226;DHT22;14732;51.074;3.788;2023-03-21T13:45:50;15.50;99.90
27226;DHT22;14732;51.074;3.788;2023-03-21T13:48:28;15.50;99.90
27226;DHT22;14732;51.074;3.788;2023-03-21T13:51:02;15.50;99.90
27226;DHT22;14732;51.074;3.788;2023-03-21T13:53:35;15.60;99.90
27226;DHT22;14732;51.074;3.788;2023-03-21T13:56:20;15.40;99.90
27226;DHT22;14732;51.074;3.788;2023-03-21T14:01:26;15.20;99.90
27226;DHT22;14732;51.074;3.788;2023-03-21T14:04:12;15.10;99.90
27226;DHT22;14732;51.074;3.788;2023-03-21T14:06:57;15.20;99.90
27226;DHT22;14732;51.074;3.788;2023-03-21T14:09:31;15.30;99.90
27226;DHT22;14732;51.074;3.788;2023-03-21T14:11:59;15.30;99.90
27226;DHT22;14732;51.074;3.788;2023-03-21T14:14:36;15.20;99.90
27226;DHT22;14732;51.074;3.788;2023-03-21T14:17:14;15.10;99.90
27226;DHT22;14732;51.074;3.788;2023-03-21T14:19:40;14.90;99.90
27226;DHT22;14732;51.074;3.788;2023-03-21T14:22:10;15.00;99.90
27226;DHT22;14732;51.074;3.788;2023-03-21T14:24:37;15.00;99.90
27226;DHT22;14732;51.074;3.788;2023-03-21T14:27:04;15.20;99.90
27226;DHT22;14732;51.074;3.788;2023-03-21T14:29:33;15.40;99.90
27226;DHT22;14732;51.074;3.788;2023-03-21T14:32:00;15.30;99.90
27226;DHT22;14732;51.074;3.788;2023-03-21T14:34:28;15.40;99.90
27226;DHT22;14732;51.074;3.788;2023-03-21T14:36:55;15.40;99.90
27226;DHT22;14732;51.074;3.788;2023-03-21T14:39:28;15.40;99.90
27226;DHT22;14732;51.074;3.788;2023-03-21T14:41:56;15.40;99.90
27226;DHT22;14732;51.074;3.788;2023-03-21T14:44:33;15.40;99.90
27226;DHT22;14732;51.074;3.788;2023-03-21T14:47:01;15.30;99.90
27226;DHT22;14732;51.074;3.788;2023-03-21T14:49:31;15.30;99.90
27226;DHT22;14732;51.074;3.788;2023-03-21T14:51:58;15.40;99.90
27226;DHT22;14732;51.074;3.788;2023-03-21T14:54:25;15.50;99.90
27226;DHT22;14732;51.074;3.788;2023-03-21T14:56:56;15.60;99.90
27226;DHT22;14732;51.074;3.788;2023-03-21T14:59:26;15.70;99.90
27226;DHT22;14732;51.074;3.788;2023-03-21T15:01:56;16.00;99.90
27226;DHT22;14732;51.074;3.788;2023-03-21T15:04:24;16.10;99.90
27226;DHT22;14732;51.074;3.788;2023-03-21T15:06:56;16.10;99.90
27226;DHT22;14732;51.074;3.788;2023-03-21T15:09:26;16.10;99.90
27226;DHT22;14732;51.074;3.788;2023-03-21T15:11:53;16.10;99.90
27226;DHT22;14732;51.074;3.788;2023-03-21T15:14:28;16.30;99.90
27226;DHT22;14732;51.074;3.788;2023-03-21T15:16:55;16.10;99.90
27226;DHT22;14732;51.074;3.788;2023-03-21T15:19:30;15.90;99.90
27226;DHT22;14732;51.074;3.788;2023-03-21T15:22:02;15.70;99.90
27226;DHT22;14732;51.074;3.788;2023-03-21T15:24:33;15.50;99.90
27226;DHT22;14732;51.074;3.788;2023-03-21T15:27:07;15.60;99.90
27226;DHT22;14732;51.074;3.788;2023-03-21T15:29:34;15.60;99.90
27226;DHT22;14732;51.074;3.788;2023-03-21T15:32:10;15.60;99.90
27226;DHT22;14732;51.074;3.788;2023-03-21T15:34:37;15.70;99.90
27226;DHT22;14732;51.074;3.788;2023-03-21T15:37:07;15.70;99.90
27226;DHT22;14732;51.074;3.788;2023-03-21T15:39:39;15.70;99.90
27226;DHT22;14732;51.074;3.788;2023-03-21T15:42:55;15.60;99.90
27226;DHT22;14732;51.074;3.788;2023-03-21T15:45:25;15.60;99.90
27226;DHT22;14732;51.074;3.788;2023-03-21T15:47:53;15.50;99.90
27226;DHT22;14732;51.074;3.788;2023-03-21T15:52:50;15.60;99.90
27226;DHT22;14732;51.074;3.788;2023-03-21T15:55:22;15.70;99.90
27226;DHT22;14732;51.074;3.788;2023-03-21T15:57:53;15.80;99.90
27226;DHT22;14732;51.074;3.788;2023-03-21T16:03:13;15.60;99.90
27226;DHT22;14732;51.074;3.788;2023-03-21T16:06:19;15.40;99.90
27226;DHT22;14732;51.074;3.788;2023-03-21T16:08:48;15.50;99.90
27226;DHT22;14732;51.074;3.788;2023-03-21T16:11:28;15.50;99.90
27226;DHT22;14732;51.074;3.788;2023-03-21T16:14:01;15.50;99.90
27226;DHT22;14732;51.074;3.788;2023-03-21T16:16:28;15.70;99.90
27226;DHT22;14732;51.074;3.788;2023-03-21T16:18:55;15.80;99.90
27226;DHT22;14732;51.074;3.788;2023-03-21T16:21:23;15.90;99.90
27226;DHT22;14732;51.074;3.788;2023-03-21T16:23:49;15.80;99.90
27226;DHT22;14732;51.074;3.788;2023-03-21T16:26:20;15.90;99.90
27226;DHT22;14732;51.074;3.788;2023-03-21T16:28:46;15.90;99.90
27226;DHT22;14732;51.074;3.788;2023-03-21T16:31:14;16.00;99.90
27226;DHT22;14732;51.074;3.788;2023-03-21T16:33:41;15.90;99.90
27226;DHT22;14732;51.074;3.788;2023-03-21T16:36:12;15.90;99.90
27226;DHT22;14732;51.074;3.788;2023-03-21T16:38:38;15.80;99.90
27226;DHT22;14732;51.074;3.788;2023-03-21T16:41:09;15.80;99.90
27226;DHT22;14732;51.074;3.788;2023-03-21T16:43:35;15.60;99.90
27226;DHT22;14732;51.074;3.788;2023-03-21T16:46:04;15.60;99.90
27226;DHT22;14732;51.074;3.788;2023-03-21T16:48:29;15.50;99.90
27226;DHT22;14732;51.074;3.788;2023-03-21T16:50:55;15.50;99.90
27226;DHT22;14732;51.074;3.788;2023-03-21T16:53:21;15.60;99.90
27226;DHT22;14732;51.074;3.788;2023-03-21T16:55:47;15.60;99.90
27226;DHT22;14732;51.074;3.788;2023-03-21T16:58:14;15.60;99.90
27226;DHT22;14732;51.074;3.788;2023-03-21T17:00:40;15.60;99.90
27226;DHT22;14732;51.074;3.788;2023-03-21T17:03:15;15.40;99.90
27226;DHT22;14732;51.074;3.788;2023-03-21T17:05:46;15.40;99.90
27226;DHT22;14732;51.074;3.788;2023-03-21T17:08:17;15.40;99.90
27226;DHT22;14732;51.074;3.788;2023-03-21T17:10:43;15.30;99.90
27226;DHT22;14732;51.074;3.788;2023-03-21T17:13:09;15.10;99.90
27226;DHT22;14732;51.074;3.788;2023-03-21T17:15:35;15.10;99.90
27226;DHT22;14732;51.074;3.788;2023-03-21T17:18:01;15.10;99.90
27226;DHT22;14732;51.074;3.788;2023-03-21T17:20:32;15.20;99.90
27226;DHT22;14732;51.074;3.788;2023-03-21T17:22:59;15.30;99.90
27226;DHT22;14732;51.074;3.788;2023-03-21T17:25:25;15.30;99.90
27226;DHT22;14732;51.074;3.788;2023-03-21T17:27:51;15.30;99.90
27226;DHT22;14732;51.074;3.788;2023-03-21T17:30:28;15.40;99.90
27226;DHT22;14732;51.074;3.788;2023-03-21T17:32:54;15.40;99.90